sensor_id;sensor_type;location;lat;lon;timestamp;P1;durP1;ratioP1;P2;durP2;ratioP2
6374;SDS011;35400;45.472;-122.822;2023-04-03T00:00:48;0.40;;;0.40;;
6374;SDS011;35400;45.472;-122.822;2023-04-03T00:03:16;0.50;;;0.50;;
6374;SDS011;35400;45.472;-122.822;2023-04-03T00:05:45;0.40;;;0.40;;
6374;SDS011;35400;45.472;-122.822;2023-04-03T00:08:13;0.30;;;0.30;;
6374;SDS011;35400;45.472;-122.822;2023-04-03T00:10:41;0.60;;;0.60;;
6374;SDS011;35400;45.472;-122.822;2023-04-03T00:13:08;0.20;;;0.20;;
6374;SDS011;35400;45.472;-122.822;2023-04-03T00:15:35;0.47;;;0.20;;
6374;SDS011;35400;45.472;-122.822;2023-04-03T00:18:04;1.30;;;0.70;;
6374;SDS011;35400;45.472;-122.822;2023-04-03T00:20:31;0.33;;;0.30;;
6374;SDS011;35400;45.472;-122.822;2023-04-03T00:22:59;1.87;;;1.07;;
6374;SDS011;35400;45.472;-122.822;2023-04-03T00:25:26;0.80;;;0.80;;
6374;SDS011;35400;45.472;-122.822;2023-04-03T00:27:54;0.90;;;0.40;;
6374;SDS011;35400;45.472;-122.822;2023-04-03T00:30:21;0.83;;;0.40;;
6374;SDS011;35400;45.472;-122.822;2023-04-03T00:32:49;0.77;;;0.40;;
6374;SDS011;35400;45.472;-122.822;2023-04-03T00:35:17;0.37;;;0.33;;
6374;SDS011;35400;45.472;-122.822;2023-04-03T00:37:46;0.90;;;0.37;;
6374;SDS011;35400;45.472;-122.822;2023-04-03T00:40:14;0.87;;;0.33;;
6374;SDS011;35400;45.472;-122.822;2023-04-03T00:42:42;0.20;;;0.20;;
6374;SDS011;35400;45.472;-122.822;2023-04-03T00:47:46;2.70;;;0.43;;
6374;SDS011;35400;45.472;-122.822;2023-04-03T00:50:13;1.20;;;0.97;;
6374;SDS011;35400;45.472;-122.822;2023-04-03T00:52:40;1.30;;;0.50;;
6374;SDS011;35400;45.472;-122.822;2023-04-03T00:55:07;0.40;;;0.40;;
6374;SDS011;35400;45.472;-122.822;2023-04-03T00:57:35;1.70;;;0.60;;
6374;SDS011;35400;45.472;-122.822;2023-04-03T01:00:08;0.70;;;0.40;;
6374;SDS011;35400;45.472;-122.822;2023-04-03T01:02:38;0.77;;;0.50;;
6374;SDS011;35400;45.472;-122.822;2023-04-03T01:05:08;0.67;;;0.40;;
6374;SDS011;35400;45.472;-122.822;2023-04-03T01:07:36;0.73;;;0.50;;
6374;SDS011;35400;45.472;-122.822;2023-04-03T01:10:08;2.03;;;0.40;;
6374;SDS011;35400;45.472;-122.822;2023-04-03T01:12:40;0.60;;;0.60;;
6374;SDS011;35400;45.472;-122.822;2023-04-03T01:15:13;1.50;;;0.47;;
6374;SDS011;35400;45.472;-122.822;2023-04-03T01:17:50;0.57;;;0.50;;
6374;SDS011;35400;45.472;-122.822;2023-04-03T01:28:11;1.17;;;0.90;;
6374;SDS011;35400;45.472;-122.822;2023-04-03T01:30:55;1.07;;;0.50;;
6374;SDS011;35400;45.472;-122.822;2023-04-03T01:33:37;1.60;;;1.20;;
6374;SDS011;35400;45.472;-122.822;2023-04-03T01:36:07;3.77;;;1.37;;
6374;SDS011;35400;45.472;-122.822;2023-04-03T01:38:35;1.77;;;0.83;;
6374;SDS011;35400;45.472;-122.822;2023-04-03T01:41:02;1.57;;;1.00;;
6374;SDS011;35400;45.472;-122.822;2023-04-03T01:43:29;2.50;;;0.83;;
6374;SDS011;35400;45.472;-122.822;2023-04-03T01:45:56;0.90;;;0.90;;
6374;SDS011;35400;45.472;-122.822;2023-04-03T01:48:26;3.97;;;1.07;;
6374;SDS011;35400;45.472;-122.822;2023-04-03T01:50:53;2.67;;;1.43;;
6374;SDS011;35400;45.472;-122.822;2023-04-03T01:53:21;1.30;;;0.77;;
6374;SDS011;35400;45.472;-122.822;2023-04-03T01:55:48;2.90;;;1.20;;
6374;SDS011;35400;45.472;-122.822;2023-04-03T01:58:15;0.97;;;0.83;;
6374;SDS011;35400;45.472;-122.822;2023-04-03T02:00:42;0.73;;;0.60;;
6374;SDS011;35400;45.472;-122.822;2023-04-03T02:03:09;1.33;;;1.00;;
6374;SDS011;35400;45.472;-122.822;2023-04-03T02:05:37;2.83;;;1.10;;
6374;SDS011;35400;45.472;-122.822;2023-04-03T02:08:04;3.90;;;2.00;;
6374;SDS011;35400;45.472;-122.822;2023-04-03T02:10:31;2.33;;;1.27;;
6374;SDS011;35400;45.472;-122.822;2023-04-03T02:12:58;1.30;;;0.63;;
6374;SDS011;35400;45.472;-122.822;2023-04-03T02:15:25;1.27;;;0.87;;
6374;SDS011;35400;45.472;-122.822;2023-04-03T02:17:52;2.13;;;1.10;;
6374;SDS011;35400;45.472;-122.822;2023-04-03T02:20:20;1.33;;;0.73;;
6374;SDS011;35400;45.472;-122.822;2023-04-03T02:22:56;4.80;;;2.33;;
6374;SDS011;35400;45.472;-122.822;2023-04-03T02:25:24;6.70;;;3.63;;
6374;SDS011;35400;45.472;-122.822;2023-04-03T02:27:53;3.83;;;2.60;;
6374;SDS011;35400;45.472;-122.822;2023-04-03T02:30:20;4.60;;;2.07;;
6374;SDS011;35400;45.472;-122.822;2023-04-03T02:32:47;9.60;;;7.60;;
6374;SDS011;35400;45.472;-122.822;2023-04-03T02:35:15;20.30;;;16.27;;
6374;SDS011;35400;45.472;-122.822;2023-04-03T02:37:42;3.73;;;3.33;;
6374;SDS011;35400;45.472;-122.822;2023-04-03T02:40:10;1.50;;;0.90;;
6374;SDS011;35400;45.472;-122.822;2023-04-03T02:42:37;0.60;;;0.40;;
6374;SDS011;35400;45.472;-122.822;2023-04-03T02:45:05;0.70;;;0.60;;
6374;SDS011;35400;45.472;-122.822;2023-04-03T02:47:32;1.83;;;0.57;;
6374;SDS011;35400;45.472;-122.822;2023-04-03T02:49:59;0.60;;;0.53;;
6374;SDS011;35400;45.472;-122.822;2023-04-03T02:52:26;1.77;;;0.80;;
6374;SDS011;35400;45.472;-122.822;2023-04-03T02:54:56;2.57;;;0.83;;
6374;SDS011;35400;45.472;-122.822;2023-04-03T02:57:23;1.63;;;0.80;;
6374;SDS011;35400;45.472;-122.822;2023-04-03T02:59:50;1.50;;;1.20;;
6374;SDS011;35400;45.472;-122.822;2023-04-03T03:02:17;2.07;;;1.10;;
6374;SDS011;35400;45.472;-122.822;2023-04-03T03:04:44;1.77;;;0.97;;
6374;SDS011;35400;45.472;-122.822;2023-04-03T03:07:11;3.50;;;1.23;;
6374;SDS011;35400;45.472;-122.822;2023-04-03T03:09:38;1.17;;;1.07;;
6374;SDS011;35400;45.472;-122.822;2023-04-03T03:12:05;2.50;;;1.50;;
6374;SDS011;35400;45.472;-122.822;2023-04-03T03:14:32;1.63;;;1.07;;
6374;SDS011;35400;45.472;-122.822;2023-04-03T03:16:59;1.40;;;1.13;;
6374;SDS011;35400;45.472;-122.822;2023-04-03T03:19:26;3.93;;;1.80;;
6374;SDS011;35400;45.472;-122.822;2023-04-03T03:21:53;1.87;;;1.00;;
6374;SDS011;35400;45.472;-122.822;2023-04-03T03:24:21;2.13;;;1.47;;
6374;SDS011;35400;45.472;-122.822;2023-04-03T03:26:48;2.70;;;1.40;;
6374;SDS011;35400;45.472;-122.822;2023-04-03T03:29:15;1.50;;;1.23;;
6374;SDS011;35400;45.472;-122.822;2023-04-03T03:31:43;1.90;;;1.40;;
6374;SDS011;35400;45.472;-122.822;2023-04-03T03:34:10;2.87;;;1.13;;
6374;SDS011;35400;45.472;-122.822;2023-04-03T03:36:37;1.20;;;0.80;;
6374;SDS011;35400;45.472;-122.822;2023-04-03T03:39:05;0.93;;;0.70;;
6374;SDS011;35400;45.472;-122.822;2023-04-03T03:41:32;1.33;;;0.80;;
6374;SDS011;35400;45.472;-122.822;2023-04-03T03:43:59;2.20;;;0.70;;
6374;SDS011;35400;45.472;-122.822;2023-04-03T03:46:28;1.00;;;0.80;;
6374;SDS011;35400;45.472;-122.822;2023-04-03T03:48:55;1.80;;;1.40;;
6374;SDS011;35400;45.472;-122.822;2023-04-03T03:51:23;3.23;;;1.80;;
6374;SDS011;35400;45.472;-122.822;2023-04-03T03:53:50;1.90;;;1.57;;
6374;SDS011;35400;45.472;-122.822;2023-04-03T03:56:19;1.60;;;1.37;;
6374;SDS011;35400;45.472;-122.822;2023-04-03T03:58:46;2.23;;;1.20;;
6374;SDS011;35400;45.472;-122.822;2023-04-03T04:01:13;1.50;;;1.40;;
6374;SDS011;35400;45.472;-122.822;2023-04-03T04:03:45;1.53;;;1.10;;
6374;SDS011;35400;45.472;-122.822;2023-04-03T04:06:16;1.83;;;1.13;;
6374;SDS011;35400;45.472;-122.822;2023-04-03T04:08:44;1.73;;;1.20;;
6374;SDS011;35400;45.472;-122.822;2023-04-03T04:11:12;3.63;;;1.70;;
6374;SDS011;35400;45.472;-122.822;2023-04-03T04:13:40;2.23;;;1.77;;
6374;SDS011;35400;45.472;-122.822;2023-04-03T04:16:09;3.00;;;2.00;;
6374;SDS011;35400;45.472;-122.822;2023-04-03T04:18:36;2.00;;;1.80;;
6374;SDS011;35400;45.472;-122.822;2023-04-03T04:21:03;1.70;;;1.50;;
6374;SDS011;35400;45.472;-122.822;2023-04-03T04:23:30;2.57;;;1.67;;
6374;SDS011;35400;45.472;-122.822;2023-04-03T04:25:59;2.27;;;2.07;;
6374;SDS011;35400;45.472;-122.822;2023-04-03T04:28:29;2.00;;;1.53;;
6374;SDS011;35400;45.472;-122.822;2023-04-03T04:30:57;2.00;;;1.43;;
6374;SDS011;35400;45.472;-122.822;2023-04-03T04:33:25;3.80;;;3.40;;
6374;SDS011;35400;45.472;-122.822;2023-04-03T04:35:53;4.13;;;3.10;;
6374;SDS011;35400;45.472;-122.822;2023-04-03T04:38:21;4.03;;;2.70;;
6374;SDS011;35400;45.472;-122.822;2023-04-03T04:40:50;5.13;;;3.53;;
6374;SDS011;35400;45.472;-122.822;2023-04-03T04:43:18;4.60;;;3.43;;
6374;SDS011;35400;45.472;-122.822;2023-04-03T04:45:48;3.40;;;3.07;;
6374;SDS011;35400;45.472;-122.822;2023-04-03T04:48:18;5.10;;;3.93;;
6374;SDS011;35400;45.472;-122.822;2023-04-03T04:50:45;4.37;;;3.33;;
6374;SDS011;35400;45.472;-122.822;2023-04-03T04:53:12;2.63;;;2.43;;
6374;SDS011;35400;45.472;-122.822;2023-04-03T04:55:40;4.67;;;2.83;;
6374;SDS011;35400;45.472;-122.822;2023-04-03T04:58:08;2.77;;;2.47;;
6374;SDS011;35400;45.472;-122.822;2023-04-03T05:00:35;2.60;;;2.30;;
6374;SDS011;35400;45.472;-122.822;2023-04-03T05:03:02;5.30;;;2.47;;
6374;SDS011;35400;45.472;-122.822;2023-04-03T05:05:30;3.43;;;2.73;;
6374;SDS011;35400;45.472;-122.822;2023-04-03T05:07:58;3.00;;;2.57;;
6374;SDS011;35400;45.472;-122.822;2023-04-03T05:10:25;2.90;;;2.60;;
6374;SDS011;35400;45.472;-122.822;2023-04-03T05:12:52;3.67;;;2.50;;
6374;SDS011;35400;45.472;-122.822;2023-04-03T05:15:19;3.60;;;2.63;;
6374;SDS011;35400;45.472;-122.822;2023-04-03T05:17:46;2.87;;;2.47;;
6374;SDS011;35400;45.472;-122.822;2023-04-03T05:20:14;3.00;;;2.77;;
6374;SDS011;35400;45.472;-122.822;2023-04-03T05:22:43;2.57;;;2.37;;
6374;SDS011;35400;45.472;-122.822;2023-04-03T05:25:11;3.43;;;2.20;;
6374;SDS011;35400;45.472;-122.822;2023-04-03T05:27:41;3.07;;;2.43;;
6374;SDS011;35400;45.472;-122.822;2023-04-03T05:30:08;2.87;;;2.57;;
6374;SDS011;35400;45.472;-122.822;2023-04-03T05:32:38;3.23;;;2.70;;
6374;SDS011;35400;45.472;-122.822;2023-04-03T05:35:16;2.30;;;1.97;;
6374;SDS011;35400;45.472;-122.822;2023-04-03T05:37:45;2.83;;;2.40;;
6374;SDS011;35400;45.472;-122.822;2023-04-03T05:40:14;2.40;;;2.13;;
6374;SDS011;35400;45.472;-122.822;2023-04-03T05:42:43;3.63;;;2.37;;
6374;SDS011;35400;45.472;-122.822;2023-04-03T05:45:11;3.97;;;2.53;;
6374;SDS011;35400;45.472;-122.822;2023-04-03T05:47:39;2.97;;;2.33;;
6374;SDS011;35400;45.472;-122.822;2023-04-03T05:50:06;3.23;;;2.93;;
6374;SDS011;35400;45.472;-122.822;2023-04-03T05:52:35;4.27;;;3.20;;
6374;SDS011;35400;45.472;-122.822;2023-04-03T05:55:04;3.67;;;2.90;;
6374;SDS011;35400;45.472;-122.822;2023-04-03T05:57:33;3.30;;;3.00;;
6374;SDS011;35400;45.472;-122.822;2023-04-03T06:00:00;4.53;;;3.03;;
6374;SDS011;35400;45.472;-122.822;2023-04-03T06:02:39;3.37;;;2.67;;
6374;SDS011;35400;45.472;-122.822;2023-04-03T06:05:12;4.07;;;2.80;;
6374;SDS011;35400;45.472;-122.822;2023-04-03T06:07:40;2.20;;;2.03;;
6374;SDS011;35400;45.472;-122.822;2023-04-03T06:10:10;3.43;;;2.43;;
6374;SDS011;35400;45.472;-122.822;2023-04-03T06:12:38;2.67;;;2.20;;
6374;SDS011;35400;45.472;-122.822;2023-04-03T06:15:06;2.20;;;1.70;;
6374;SDS011;35400;45.472;-122.822;2023-04-03T06:17:36;2.30;;;2.10;;
6374;SDS011;35400;45.472;-122.822;2023-04-03T06:20:03;2.23;;;1.90;;
6374;SDS011;35400;45.472;-122.822;2023-04-03T06:22:31;2.70;;;1.90;;
6374;SDS011;35400;45.472;-122.822;2023-04-03T06:24:58;2.30;;;2.10;;
6374;SDS011;35400;45.472;-122.822;2023-04-03T06:27:25;3.17;;;2.37;;
6374;SDS011;35400;45.472;-122.822;2023-04-03T06:29:51;2.33;;;2.13;;
6374;SDS011;35400;45.472;-122.822;2023-04-03T06:32:18;2.13;;;1.90;;
6374;SDS011;35400;45.472;-122.822;2023-04-03T06:34:45;3.60;;;2.00;;
6374;SDS011;35400;45.472;-122.822;2023-04-03T06:37:17;2.90;;;2.13;;
6374;SDS011;35400;45.472;-122.822;2023-04-03T06:39:46;1.80;;;1.70;;
6374;SDS011;35400;45.472;-122.822;2023-04-03T06:42:14;2.87;;;2.07;;
6374;SDS011;35400;45.472;-122.822;2023-04-03T06:44:52;3.40;;;2.00;;
6374;SDS011;35400;45.472;-122.822;2023-04-03T06:47:19;2.47;;;1.90;;
6374;SDS011;35400;45.472;-122.822;2023-04-03T06:49:46;3.60;;;1.77;;
6374;SDS011;35400;45.472;-122.822;2023-04-03T06:52:13;2.33;;;1.43;;
6374;SDS011;35400;45.472;-122.822;2023-04-03T06:54:40;3.57;;;1.70;;
6374;SDS011;35400;45.472;-122.822;2023-04-03T06:57:07;1.80;;;1.27;;
6374;SDS011;35400;45.472;-122.822;2023-04-03T06:59:34;1.77;;;1.40;;
6374;SDS011;35400;45.472;-122.822;2023-04-03T07:02:02;2.30;;;1.53;;
6374;SDS011;35400;45.472;-122.822;2023-04-03T07:04:29;2.30;;;1.87;;
6374;SDS011;35400;45.472;-122.822;2023-04-03T07:06:56;4.37;;;2.40;;
6374;SDS011;35400;45.472;-122.822;2023-04-03T07:09:23;1.87;;;1.67;;
6374;SDS011;35400;45.472;-122.822;2023-04-03T07:11:50;2.00;;;1.40;;
6374;SDS011;35400;45.472;-122.822;2023-04-03T07:14:17;2.03;;;1.10;;
6374;SDS011;35400;45.472;-122.822;2023-04-03T07:16:44;1.90;;;1.40;;
6374;SDS011;35400;45.472;-122.822;2023-04-03T07:19:11;1.47;;;1.10;;
6374;SDS011;35400;45.472;-122.822;2023-04-03T07:21:38;1.53;;;1.00;;
6374;SDS011;35400;45.472;-122.822;2023-04-03T07:24:07;1.40;;;0.93;;
6374;SDS011;35400;45.472;-122.822;2023-04-03T07:26:34;2.80;;;1.10;;
6374;SDS011;35400;45.472;-122.822;2023-04-03T07:29:01;2.10;;;1.17;;
6374;SDS011;35400;45.472;-122.822;2023-04-03T07:31:28;1.10;;;1.00;;
6374;SDS011;35400;45.472;-122.822;2023-04-03T07:33:55;1.67;;;1.00;;
6374;SDS011;35400;45.472;-122.822;2023-04-03T07:36:22;3.07;;;1.50;;
6374;SDS011;35400;45.472;-122.822;2023-04-03T07:38:49;1.53;;;1.00;;
6374;SDS011;35400;45.472;-122.822;2023-04-03T07:41:17;2.13;;;1.00;;
6374;SDS011;35400;45.472;-122.822;2023-04-03T07:43:46;1.10;;;1.00;;
6374;SDS011;35400;45.472;-122.822;2023-04-03T07:46:15;1.70;;;1.23;;
6374;SDS011;35400;45.472;-122.822;2023-04-03T07:48:44;0.80;;;0.67;;
6374;SDS011;35400;45.472;-122.822;2023-04-03T07:51:11;1.37;;;0.70;;
6374;SDS011;35400;45.472;-122.822;2023-04-03T07:53:38;3.57;;;0.77;;
6374;SDS011;35400;45.472;-122.822;2023-04-03T07:56:05;1.20;;;1.00;;
6374;SDS011;35400;45.472;-122.822;2023-04-03T07:58:33;0.93;;;0.70;;
6374;SDS011;35400;45.472;-122.822;2023-04-03T08:01:00;0.60;;;0.60;;
6374;SDS011;35400;45.472;-122.822;2023-04-03T08:03:27;1.37;;;0.70;;
6374;SDS011;35400;45.472;-122.822;2023-04-03T08:05:54;0.80;;;0.80;;
6374;SDS011;35400;45.472;-122.822;2023-04-03T08:08:27;0.83;;;0.83;;
6374;SDS011;35400;45.472;-122.822;2023-04-03T08:10:55;3.13;;;0.83;;
6374;SDS011;35400;45.472;-122.822;2023-04-03T08:13:24;2.50;;;1.10;;
6374;SDS011;35400;45.472;-122.822;2023-04-03T08:15:51;1.40;;;1.00;;
6374;SDS011;35400;45.472;-122.822;2023-04-03T08:18:18;1.67;;;1.30;;
6374;SDS011;35400;45.472;-122.822;2023-04-03T08:20:47;1.20;;;0.80;;
6374;SDS011;35400;45.472;-122.822;2023-04-03T08:23:14;0.83;;;0.83;;
6374;SDS011;35400;45.472;-122.822;2023-04-03T08:25:42;1.40;;;1.10;;
6374;SDS011;35400;45.472;-122.822;2023-04-03T08:28:10;1.23;;;0.80;;
6374;SDS011;35400;45.472;-122.822;2023-04-03T08:30:39;1.10;;;1.00;;
6374;SDS011;35400;45.472;-122.822;2023-04-03T08:33:08;2.43;;;1.03;;
6374;SDS011;35400;45.472;-122.822;2023-04-03T08:35:39;1.27;;;1.00;;
6374;SDS011;35400;45.472;-122.822;2023-04-03T08:38:07;1.03;;;0.70;;
6374;SDS011;35400;45.472;-122.822;2023-04-03T08:40:35;1.27;;;0.90;;
6374;SDS011;35400;45.472;-122.822;2023-04-03T08:48:18;2.33;;;1.00;;
6374;SDS011;35400;45.472;-122.822;2023-04-03T08:50:54;0.57;;;0.50;;
6374;SDS011;35400;45.472;-122.822;2023-04-03T08:53:26;1.03;;;0.50;;
6374;SDS011;35400;45.472;-122.822;2023-04-03T08:55:58;0.70;;;0.60;;
6374;SDS011;35400;45.472;-122.822;2023-04-03T08:58:30;1.53;;;0.67;;
6374;SDS011;35400;45.472;-122.822;2023-04-03T09:01:33;1.23;;;0.60;;
6374;SDS011;35400;45.472;-122.822;2023-04-03T09:04:05;1.33;;;0.70;;
6374;SDS011;35400;45.472;-122.822;2023-04-03T09:06:37;0.80;;;0.50;;
6374;SDS011;35400;45.472;-122.822;2023-04-03T09:15:15;0.50;;;0.50;;
6374;SDS011;35400;45.472;-122.822;2023-04-03T09:20:39;0.50;;;0.50;;
6374;SDS011;35400;45.472;-122.822;2023-04-03T09:25:50;1.17;;;0.63;;
6374;SDS011;35400;45.472;-122.822;2023-04-03T09:28:20;1.63;;;0.53;;
6374;SDS011;35400;45.472;-122.822;2023-04-03T09:30:47;1.27;;;0.70;;
6374;SDS011;35400;45.472;-122.822;2023-04-03T09:33:14;0.80;;;0.80;;
6374;SDS011;35400;45.472;-122.822;2023-04-03T09:35:42;0.63;;;0.63;;
6374;SDS011;35400;45.472;-122.822;2023-04-03T09:40:37;0.90;;;0.60;;
6374;SDS011;35400;45.472;-122.822;2023-04-03T09:45:55;0.60;;;0.60;;
6374;SDS011;35400;45.472;-122.822;2023-04-03T09:48:49;1.67;;;0.87;;
6374;SDS011;35400;45.472;-122.822;2023-04-03T09:51:24;3.93;;;0.70;;
6374;SDS011;35400;45.472;-122.822;2023-04-03T09:53:53;1.23;;;0.97;;
6374;SDS011;35400;45.472;-122.822;2023-04-03T09:56:22;2.40;;;0.80;;
6374;SDS011;35400;45.472;-122.822;2023-04-03T10:01:31;0.93;;;0.60;;
6374;SDS011;35400;45.472;-122.822;2023-04-03T10:06:32;1.23;;;1.00;;
6374;SDS011;35400;45.472;-122.822;2023-04-03T10:09:20;2.43;;;0.77;;
6374;SDS011;35400;45.472;-122.822;2023-04-03T10:14:36;1.13;;;0.60;;
6374;SDS011;35400;45.472;-122.822;2023-04-03T10:25:29;1.37;;;0.70;;
6374;SDS011;35400;45.472;-122.822;2023-04-03T10:30:56;1.07;;;0.70;;
6374;SDS011;35400;45.472;-122.822;2023-04-03T10:42:08;0.80;;;0.77;;
6374;SDS011;35400;45.472;-122.822;2023-04-03T10:56:15;0.67;;;0.67;;
6374;SDS011;35400;45.472;-122.822;2023-04-03T10:58:53;0.63;;;0.53;;
6374;SDS011;35400;45.472;-122.822;2023-04-03T11:01:24;0.70;;;0.60;;
6374;SDS011;35400;45.472;-122.822;2023-04-03T11:03:58;1.80;;;0.70;;
6374;SDS011;35400;45.472;-122.822;2023-04-03T11:06:31;1.13;;;0.87;;
6374;SDS011;35400;45.472;-122.822;2023-04-03T11:09:21;0.97;;;0.60;;
6374;SDS011;35400;45.472;-122.822;2023-04-03T11:12:11;1.33;;;0.83;;
6374;SDS011;35400;45.472;-122.822;2023-04-03T11:14:44;0.93;;;0.77;;
6374;SDS011;35400;45.472;-122.822;2023-04-03T11:20:34;0.93;;;0.80;;
6374;SDS011;35400;45.472;-122.822;2023-04-03T11:22:56;3.77;;;0.70;;
6374;SDS011;35400;45.472;-122.822;2023-04-03T11:25:30;2.23;;;0.70;;
6374;SDS011;35400;45.472;-122.822;2023-04-03T11:28:00;1.03;;;0.80;;
6374;SDS011;35400;45.472;-122.822;2023-04-03T11:33:28;0.83;;;0.80;;
6374;SDS011;35400;45.472;-122.822;2023-04-03T11:39:35;1.53;;;0.97;;
6374;SDS011;35400;45.472;-122.822;2023-04-03T11:44:40;1.23;;;0.80;;
6374;SDS011;35400;45.472;-122.822;2023-04-03T11:47:08;1.00;;;0.67;;
6374;SDS011;35400;45.472;-122.822;2023-04-03T12:18:58;0.47;;;0.47;;
6374;SDS011;35400;45.472;-122.822;2023-04-03T12:26:43;0.87;;;0.60;;
6374;SDS011;35400;45.472;-122.822;2023-04-03T12:45:52;2.00;;;1.40;;
6374;SDS011;35400;45.472;-122.822;2023-04-03T12:48:27;2.40;;;1.20;;
6374;SDS011;35400;45.472;-122.822;2023-04-03T12:50:57;1.00;;;0.90;;
6374;SDS011;35400;45.472;-122.822;2023-04-03T12:53:29;1.57;;;1.13;;
6374;SDS011;35400;45.472;-122.822;2023-04-03T12:56:43;2.07;;;0.90;;
6374;SDS011;35400;45.472;-122.822;2023-04-03T12:58:54;1.63;;;1.00;;
6374;SDS011;35400;45.472;-122.822;2023-04-03T13:01:38;1.23;;;0.93;;
6374;SDS011;35400;45.472;-122.822;2023-04-03T13:04:05;1.07;;;1.07;;
6374;SDS011;35400;45.472;-122.822;2023-04-03T13:06:42;2.50;;;0.90;;
6374;SDS011;35400;45.472;-122.822;2023-04-03T13:09:21;0.70;;;0.60;;
6374;SDS011;35400;45.472;-122.822;2023-04-03T13:11:49;2.10;;;0.93;;
6374;SDS011;35400;45.472;-122.822;2023-04-03T13:14:21;0.80;;;0.80;;
6374;SDS011;35400;45.472;-122.822;2023-04-03T13:17:03;1.20;;;0.60;;
6374;SDS011;35400;45.472;-122.822;2023-04-03T13:19:30;0.80;;;0.80;;
6374;SDS011;35400;45.472;-122.822;2023-04-03T13:21:59;1.07;;;0.73;;
6374;SDS011;35400;45.472;-122.822;2023-04-03T13:24:30;0.97;;;0.80;;
6374;SDS011;35400;45.472;-122.822;2023-04-03T13:27:01;1.10;;;1.00;;
6374;SDS011;35400;45.472;-122.822;2023-04-03T13:29:30;0.93;;;0.70;;
6374;SDS011;35400;45.472;-122.822;2023-04-03T13:32:00;0.93;;;0.80;;
6374;SDS011;35400;45.472;-122.822;2023-04-03T13:34:38;0.60;;;0.60;;
6374;SDS011;35400;45.472;-122.822;2023-04-03T13:37:11;0.87;;;0.87;;
6374;SDS011;35400;45.472;-122.822;2023-04-03T13:42:32;0.77;;;0.77;;
6374;SDS011;35400;45.472;-122.822;2023-04-03T13:47:50;1.03;;;0.77;;
6374;SDS011;35400;45.472;-122.822;2023-04-03T13:50:22;1.03;;;1.00;;
6374;SDS011;35400;45.472;-122.822;2023-04-03T13:53:02;1.90;;;1.00;;
6374;SDS011;35400;45.472;-122.822;2023-04-03T13:55:51;1.90;;;0.80;;
6374;SDS011;35400;45.472;-122.822;2023-04-03T13:58:27;0.73;;;0.53;;
6374;SDS011;35400;45.472;-122.822;2023-04-03T14:03:43;1.80;;;0.90;;
6374;SDS011;35400;45.472;-122.822;2023-04-03T14:06:13;1.47;;;0.80;;
6374;SDS011;35400;45.472;-122.822;2023-04-03T14:08:42;0.90;;;0.90;;
6374;SDS011;35400;45.472;-122.822;2023-04-03T14:11:14;2.00;;;0.90;;
6374;SDS011;35400;45.472;-122.822;2023-04-03T14:13:44;0.97;;;0.80;;
6374;SDS011;35400;45.472;-122.822;2023-04-03T14:16:15;0.97;;;0.80;;
6374;SDS011;35400;45.472;-122.822;2023-04-03T14:18:47;0.80;;;0.80;;
6374;SDS011;35400;45.472;-122.822;2023-04-03T14:21:16;0.70;;;0.70;;
6374;SDS011;35400;45.472;-122.822;2023-04-03T14:23:44;1.40;;;0.80;;
6374;SDS011;35400;45.472;-122.822;2023-04-03T14:26:15;0.90;;;0.70;;
6374;SDS011;35400;45.472;-122.822;2023-04-03T14:28:48;0.83;;;0.80;;
6374;SDS011;35400;45.472;-122.822;2023-04-03T14:31:19;0.87;;;0.67;;
6374;SDS011;35400;45.472;-122.822;2023-04-03T14:33:47;0.97;;;0.60;;
6374;SDS011;35400;45.472;-122.822;2023-04-03T14:36:18;1.23;;;1.00;;
6374;SDS011;35400;45.472;-122.822;2023-04-03T14:38:49;0.83;;;0.50;;
6374;SDS011;35400;45.472;-122.822;2023-04-03T14:41:16;0.40;;;0.40;;
6374;SDS011;35400;45.472;-122.822;2023-04-03T14:43:46;0.63;;;0.53;;
6374;SDS011;35400;45.472;-122.822;2023-04-03T14:46:14;1.23;;;0.53;;
6374;SDS011;35400;45.472;-122.822;2023-04-03T14:49:04;1.33;;;0.80;;
6374;SDS011;35400;45.472;-122.822;2023-04-03T14:51:40;0.97;;;0.70;;
6374;SDS011;35400;45.472;-122.822;2023-04-03T14:54:11;1.47;;;0.67;;
6374;SDS011;35400;45.472;-122.822;2023-04-03T14:56:44;1.40;;;0.53;;
6374;SDS011;35400;45.472;-122.822;2023-04-03T14:59:12;0.87;;;0.70;;
6374;SDS011;35400;45.472;-122.822;2023-04-03T15:01:41;0.70;;;0.70;;
6374;SDS011;35400;45.472;-122.822;2023-04-03T15:04:18;1.03;;;0.60;;
6374;SDS011;35400;45.472;-122.822;2023-04-03T15:06:47;1.00;;;0.90;;
6374;SDS011;35400;45.472;-122.822;2023-04-03T15:09:18;0.93;;;0.70;;
6374;SDS011;35400;45.472;-122.822;2023-04-03T15:11:51;0.60;;;0.60;;
6374;SDS011;35400;45.472;-122.822;2023-04-03T15:14:19;1.10;;;0.70;;
6374;SDS011;35400;45.472;-122.822;2023-04-03T15:16:46;1.50;;;0.90;;
6374;SDS011;35400;45.472;-122.822;2023-04-03T15:19:14;0.60;;;0.60;;
6374;SDS011;35400;45.472;-122.822;2023-04-03T15:21:41;0.63;;;0.63;;
6374;SDS011;35400;45.472;-122.822;2023-04-03T15:24:08;0.80;;;0.70;;
6374;SDS011;35400;45.472;-122.822;2023-04-03T15:26:36;1.50;;;0.80;;
6374;SDS011;35400;45.472;-122.822;2023-04-03T15:29:03;1.43;;;0.60;;
6374;SDS011;35400;45.472;-122.822;2023-04-03T15:31:31;0.80;;;0.80;;
6374;SDS011;35400;45.472;-122.822;2023-04-03T15:33:58;1.53;;;1.00;;
6374;SDS011;35400;45.472;-122.822;2023-04-03T15:36:25;1.30;;;0.80;;
6374;SDS011;35400;45.472;-122.822;2023-04-03T15:38:52;1.60;;;0.80;;
6374;SDS011;35400;45.472;-122.822;2023-04-03T15:41:19;1.43;;;0.70;;
6374;SDS011;35400;45.472;-122.822;2023-04-03T15:43:46;0.83;;;0.83;;
6374;SDS011;35400;45.472;-122.822;2023-04-03T15:46:13;0.70;;;0.70;;
6374;SDS011;35400;45.472;-122.822;2023-04-03T15:48:41;1.23;;;0.90;;
6374;SDS011;35400;45.472;-122.822;2023-04-03T15:51:08;1.70;;;0.63;;
6374;SDS011;35400;45.472;-122.822;2023-04-03T15:53:35;0.87;;;0.80;;
6374;SDS011;35400;45.472;-122.822;2023-04-03T15:56:02;0.87;;;0.60;;
6374;SDS011;35400;45.472;-122.822;2023-04-03T15:58:30;0.60;;;0.60;;
6374;SDS011;35400;45.472;-122.822;2023-04-03T16:00:57;0.70;;;0.70;;
6374;SDS011;35400;45.472;-122.822;2023-04-03T16:03:24;0.70;;;0.70;;
6374;SDS011;35400;45.472;-122.822;2023-04-03T16:05:52;1.00;;;0.70;;
6374;SDS011;35400;45.472;-122.822;2023-04-03T16:08:19;0.67;;;0.60;;
6374;SDS011;35400;45.472;-122.822;2023-04-03T16:10:46;0.57;;;0.50;;
6374;SDS011;35400;45.472;-122.822;2023-04-03T16:13:14;2.33;;;0.40;;
6374;SDS011;35400;45.472;-122.822;2023-04-03T16:15:41;0.83;;;0.77;;
6374;SDS011;35400;45.472;-122.822;2023-04-03T16:18:08;0.57;;;0.43;;
6374;SDS011;35400;45.472;-122.822;2023-04-03T16:20:36;0.40;;;0.40;;
6374;SDS011;35400;45.472;-122.822;2023-04-03T16:23:03;0.50;;;0.43;;
6374;SDS011;35400;45.472;-122.822;2023-04-03T16:25:30;1.53;;;0.53;;
6374;SDS011;35400;45.472;-122.822;2023-04-03T16:27:57;0.40;;;0.40;;
6374;SDS011;35400;45.472;-122.822;2023-04-03T16:30:25;1.40;;;0.60;;
6374;SDS011;35400;45.472;-122.822;2023-04-03T16:32:52;0.63;;;0.60;;
6374;SDS011;35400;45.472;-122.822;2023-04-03T16:35:21;0.97;;;0.70;;
6374;SDS011;35400;45.472;-122.822;2023-04-03T16:37:48;0.50;;;0.50;;
6374;SDS011;35400;45.472;-122.822;2023-04-03T16:40:15;0.40;;;0.40;;
6374;SDS011;35400;45.472;-122.822;2023-04-03T16:42:42;0.57;;;0.53;;
6374;SDS011;35400;45.472;-122.822;2023-04-03T16:45:09;0.60;;;0.60;;
6374;SDS011;35400;45.472;-122.822;2023-04-03T16:47:37;0.90;;;0.70;;
6374;SDS011;35400;45.472;-122.822;2023-04-03T16:50:04;0.60;;;0.60;;
6374;SDS011;35400;45.472;-122.822;2023-04-03T16:52:31;0.50;;;0.50;;
6374;SDS011;35400;45.472;-122.822;2023-04-03T16:54:58;1.27;;;0.50;;
6374;SDS011;35400;45.472;-122.822;2023-04-03T16:57:25;2.53;;;0.60;;